Time;durP1;ratioP1;P1;durP2;ratioP2;P2;SDS_P1;SDS_P2;PMS_P1;PMS_P2;Temp;Humidity;BMP_temperature;BMP_pressure;BME280_temperature;BME280_humidity;BME280_pressure;Samples;Min_cycle;Max_cycle;Signal;HPM_P1;HPM_P2
2023/01/14 00:00:22;;;;;;;3.47;0.60;;;7.60;91.40;;;;;;5099437;28;20400;-76
2023/01/14 00:02:48;;;;;;;2.85;0.70;;;7.60;91.70;;;;;;5125618;28;20042;-77
2023/01/14 00:05:14;;;;;;;1.10;0.45;;;7.60;91.40;;;;;;5070247;28;20495;-76
2023/01/14 00:07:40;;;;;;;1.63;0.57;;;7.60;91.50;;;;;;5119977;28;20038;-76
2023/01/14 00:10:06;;;;;;;1.70;0.50;;;7.60;91.40;;;;;;5085254;28;20096;-76
2023/01/14 00:12:34;;;;;;;1.40;0.60;;;7.60;91.40;;;;;;5084567;28;20048;-76
2023/01/14 00:14:59;;;;;;;4.18;0.73;;;7.50;91.40;;;;;;5081737;28;20039;-76
2023/01/14 00:17:25;;;;;;;3.58;0.77;;;7.40;91.40;;;;;;5063663;28;20039;-76
2023/01/14 00:19:51;;;;;;;2.40;0.60;;;7.40;91.50;;;;;;5066695;28;20048;-76
2023/01/14 00:22:16;;;;;;;1.23;0.43;;;7.40;91.50;;;;;;5117459;28;20031;-76
2023/01/14 00:24:42;;;;;;;1.25;0.60;;;7.30;91.50;;;;;;5083504;28;20193;-76
2023/01/14 00:27:08;;;;;;;2.75;0.80;;;7.30;91.60;;;;;;5065979;28;20035;-76
2023/01/14 00:29:35;;;;;;;2.20;0.55;;;7.30;91.60;;;;;;5083993;28;20109;-76
2023/01/14 00:32:03;;;;;;;3.25;0.70;;;7.20;91.60;;;;;;5083339;28;20035;-76
2023/01/14 00:34:30;;;;;;;2.03;0.70;;;7.20;91.70;;;;;;5080119;28;20393;-77
2023/01/14 00:36:57;;;;;;;0.52;0.32;;;7.20;91.80;;;;;;5079984;28;20048;-76
2023/01/14 00:39:23;;;;;;;1.58;0.57;;;7.10;91.80;;;;;;5081398;28;20040;-76
2023/01/14 00:41:49;;;;;;;1.77;0.70;;;7.20;91.80;;;;;;5082266;28;20044;-77
2023/01/14 00:44:16;;;;;;;2.85;0.60;;;7.10;91.70;;;;;;5079778;28;20134;-77
2023/01/14 00:46:42;;;;;;;1.85;0.68;;;7.20;91.70;;;;;;5079526;28;20497;-77
2023/01/14 00:49:18;;;;;;;1.55;0.70;;;7.20;91.70;;;;;;5096259;28;20044;-77
2023/01/14 00:51:44;;;;;;;2.60;0.90;;;7.10;91.60;;;;;;5079294;28;20461;-77
2023/01/14 00:54:10;;;;;;;3.28;0.88;;;7.20;91.60;;;;;;5081173;28;20039;-77
2023/01/14 00:56:35;;;;;;;2.15;0.70;;;7.20;91.60;;;;;;5062559;28;20043;-76
2023/01/14 00:59:01;;;;;;;3.65;0.75;;;7.30;91.60;;;;;;5080565;28;20442;-77
2023/01/14 01:01:27;;;;;;;2.35;0.60;;;7.30;91.50;;;;;;5062640;28;20096;-77
2023/01/14 01:03:55;;;;;;;2.58;0.85;;;7.30;91.50;;;;;;5096474;28;20044;-77
2023/01/14 01:06:22;;;;;;;1.77;0.70;;;7.30;91.50;;;;;;5079177;28;20077;-77
2023/01/14 01:08:49;;;;;;;3.47;0.70;;;7.30;91.50;;;;;;5078903;28;20043;-77
2023/01/14 01:11:16;;;;;;;1.75;0.70;;;7.30;91.50;;;;;;5079106;28;20489;-77
2023/01/14 01:13:41;;;;;;;2.42;0.70;;;7.30;91.50;;;;;;5079019;28;20100;-76
2023/01/14 01:16:12;;;;;;;1.38;0.70;;;7.20;91.50;;;;;;5062180;28;20051;-76
2023/01/14 01:18:38;;;;;;;2.60;0.83;;;7.20;91.50;;;;;;5078906;28;20117;-76
2023/01/14 01:21:08;;;;;;;2.45;0.77;;;7.30;91.50;;;;;;5062105;28;20277;-76
2023/01/14 01:23:34;;;;;;;2.67;0.60;;;7.20;91.50;;;;;;5078898;28;20059;-77
2023/01/14 01:26:03;;;;;;;2.20;0.90;;;7.40;91.60;;;;;;5062891;28;20036;-76
2023/01/14 01:28:29;;;;;;;3.35;1.08;;;7.30;91.60;;;;;;5097557;28;20114;-76
2023/01/14 01:31:03;;;;;;;3.15;0.88;;;7.30;91.50;;;;;;5079914;28;20119;-76
2023/01/14 01:33:30;;;;;;;2.38;0.70;;;7.20;91.50;;;;;;5080958;28;20497;-77
2023/01/14 01:36:03;;;;;;;3.90;0.90;;;7.30;91.40;;;;;;5080446;28;20054;-77
2023/01/14 01:38:30;;;;;;;3.92;1.10;;;7.30;91.50;;;;;;5062965;28;20497;-77
2023/01/14 01:40:56;;;;;;;1.92;0.88;;;7.20;91.40;;;;;;5079268;28;20040;-77
2023/01/14 01:43:25;;;;;;;4.18;1.17;;;7.20;91.40;;;;;;5095142;28;20047;-77
2023/01/14 01:45:52;;;;;;;3.67;1.08;;;7.20;91.40;;;;;;5095529;28;20051;-77
2023/01/14 01:48:26;;;;;;;2.53;1.00;;;7.20;91.70;;;;;;5078364;28;20032;-77
2023/01/14 01:51:02;;;;;;;2.72;1.10;;;7.10;91.40;;;;;;5079583;28;20039;-77
2023/01/14 01:53:28;;;;;;;1.88;1.00;;;7.10;91.40;;;;;;5079789;28;20040;-77
2023/01/14 01:55:56;;;;;;;2.70;0.80;;;7.10;91.50;;;;;;5061620;28;20036;-77
2023/01/14 01:58:26;;;;;;;3.13;0.90;;;7.10;91.50;;;;;;5078547;28;20373;-75
2023/01/14 02:00:52;;;;;;;1.63;0.63;;;7.00;91.50;;;;;;5063252;28;20047;-76
2023/01/14 02:03:23;;;;;;;3.38;0.82;;;7.00;91.80;;;;;;5112990;28;20052;-77
2023/01/14 02:05:51;;;;;;;1.95;0.95;;;6.90;91.60;;;;;;5061981;28;20042;-75
2023/01/14 02:08:17;;;;;;;2.25;0.80;;;6.90;91.60;;;;;;5061483;28;20448;-77
2023/01/14 02:11:01;;;;;;;2.05;0.88;;;6.90;91.60;;;;;;5061523;28;20036;-76
2023/01/14 02:13:43;;;;;;;3.50;0.80;;;6.90;91.60;;;;;;5098274;28;20126;-76
2023/01/14 02:16:37;;;;;;;4.78;1.23;;;6.80;91.60;;;;;;5113918;28;20130;-76
2023/01/14 02:19:42;;;;;;;5.00;0.88;;;6.80;91.60;;;;;;5099437;28;20377;-76
2023/01/14 02:22:37;;;;;;;2.63;0.93;;;6.80;91.90;;;;;;5099358;28;20082;-75
2023/01/14 02:25:31;;;;;;;4.07;1.20;;;6.80;91.60;;;;;;5077596;28;20497;-74
2023/01/14 02:28:29;;;;;;;3.60;1.02;;;6.70;91.50;;;;;;5077371;28;20109;-74
2023/01/14 02:31:09;;;;;;;2.20;1.05;;;6.70;91.60;;;;;;5095855;28;20047;-75
2023/01/14 02:33:45;;;;;;;5.60;1.30;;;6.70;91.50;;;;;;5096193;28;20085;-75
2023/01/14 02:36:35;;;;;;;3.80;1.30;;;6.60;91.60;;;;;;5097379;28;20050;-75
2023/01/14 02:39:21;;;;;;;5.75;1.10;;;6.60;91.60;;;;;;5096384;28;20044;-74
2023/01/14 02:44:38;;;;;;;4.25;1.20;;;6.40;91.60;;;;;;5117952;28;20048;-76
2023/01/14 02:47:10;;;;;;;4.55;1.00;;;6.50;91.70;;;;;;5099694;28;20039;-75
2023/01/14 02:49:41;;;;;;;2.40;1.00;;;6.40;91.70;;;;;;5119627;28;20066;-76
2023/01/14 02:52:07;;;;;;;3.55;1.10;;;6.40;91.70;;;;;;5117895;28;20040;-76
2023/01/14 02:54:33;;;;;;;1.58;0.85;;;6.40;91.70;;;;;;5099094;28;20051;-75
2023/01/14 02:57:12;;;;;;;3.45;1.10;;;6.40;91.80;;;;;;5098301;28;20055;-74
2023/01/14 02:59:47;;;;;;;1.88;0.75;;;6.30;91.70;;;;;;5099115;28;20056;-75
2023/01/14 03:02:35;;;;;;;3.92;1.02;;;6.30;91.80;;;;;;5067293;28;20042;-75
2023/01/14 03:05:21;;;;;;;3.60;0.93;;;6.30;91.80;;;;;;5097842;28;20054;-74
2023/01/14 03:07:58;;;;;;;2.70;0.85;;;6.30;91.80;;;;;;5099620;28;20039;-75
2023/01/14 03:10:40;;;;;;;6.22;1.38;;;6.20;91.70;;;;;;5117046;28;20400;-75
2023/01/14 03:13:16;;;;;;;2.95;0.93;;;6.20;92.00;;;;;;5097698;28;20504;-75
2023/01/14 03:16:15;;;;;;;3.15;1.10;;;6.20;91.70;;;;;;5099852;28;20043;-74
2023/01/14 03:18:58;;;;;;;3.88;1.10;;;6.20;91.80;;;;;;5082886;28;20070;-74
2023/01/14 03:21:29;;;;;;;3.25;1.10;;;6.20;91.80;;;;;;5099616;28;20063;-75
2023/01/14 03:23:59;;;;;;;2.63;1.08;;;6.20;91.80;;;;;;5117899;28;20381;-74
2023/01/14 03:26:26;;;;;;;5.70;1.27;;;6.20;91.70;;;;;;5116679;28;20044;-74
2023/01/14 03:28:54;;;;;;;3.47;1.13;;;6.10;91.70;;;;;;5116175;28;20082;-74
2023/01/14 03:31:26;;;;;;;3.92;1.20;;;6.10;91.70;;;;;;5116116;28;20564;-74
2023/01/14 03:33:54;;;;;;;;;;;6.10;91.80;;;;;;5098379;28;20082;-74
2023/01/14 03:36:22;;;;;;;2.85;0.82;;;6.10;91.80;;;;;;5115008;28;19934;-75
2023/01/14 03:38:55;;;;;;;3.10;0.95;;;6.10;91.70;;;;;;5096681;28;20089;-74
2023/01/14 03:44:06;;;;;;;2.58;0.77;;;6.10;91.80;;;;;;5098764;28;20051;-74
2023/01/14 03:46:32;;;;;;;3.05;0.68;;;6.10;91.80;;;;;;5080206;28;20180;-74
2023/01/14 03:48:58;;;;;;;3.28;0.90;;;6.00;91.80;;;;;;5114846;28;20485;-75
2023/01/14 03:51:39;;;;;;;2.38;0.80;;;6.00;91.80;;;;;;5095917;28;20028;-74
2023/01/14 03:54:22;;;;;;;3.40;0.70;;;6.10;91.90;;;;;;5115864;28;20124;-76
2023/01/14 03:57:04;;;;;;;1.85;0.80;;;6.10;91.90;;;;;;5097330;28;20036;-75
2023/01/14 03:59:46;;;;;;;3.45;0.80;;;6.00;91.90;;;;;;5097585;28;20400;-75
2023/01/14 04:02:13;;;;;;;1.15;0.65;;;6.00;91.90;;;;;;5113688;28;20044;-75
2023/01/14 04:04:39;;;;;;;4.40;0.70;;;6.10;91.90;;;;;;5083597;28;20040;-75
2023/01/14 04:07:05;;;;;;;2.67;0.82;;;6.00;91.90;;;;;;5098822;28;20454;-75
2023/01/14 04:09:31;;;;;;;1.90;0.65;;;6.10;91.90;;;;;;5115412;28;20040;-75
2023/01/14 04:11:56;;;;;;;3.08;0.95;;;6.10;91.80;;;;;;5097698;28;20061;-76
2023/01/14 04:17:04;;;;;;;3.50;0.80;;;6.10;91.80;;;;;;5100149;28;20046;-75
2023/01/14 04:19:30;;;;;;;3.17;1.10;;;6.10;91.80;;;;;;5100824;28;20134;-76
2023/01/14 04:21:55;;;;;;;8.32;1.35;;;6.10;91.80;;;;;;5097766;28;20051;-75
2023/01/14 04:24:21;;;;;;;3.13;1.00;;;6.10;91.80;;;;;;5100346;28;20051;-75
2023/01/14 04:26:46;;;;;;;1.33;0.75;;;6.10;91.80;;;;;;5103456;28;20035;-76
2023/01/14 04:29:13;;;;;;;5.63;0.98;;;6.20;91.80;;;;;;5097276;28;20073;-75
2023/01/14 04:31:38;;;;;;;1.95;0.75;;;6.20;91.80;;;;;;5099248;28;20075;-75
2023/01/14 04:34:04;;;;;;;3.42;1.17;;;6.30;91.80;;;;;;5105350;28;20040;-76
2023/01/14 04:36:29;;;;;;;3.92;1.17;;;6.20;91.80;;;;;;5102442;28;20082;-76
2023/01/14 04:38:55;;;;;;;3.72;1.20;;;6.20;91.80;;;;;;5083237;28;20040;-75
2023/01/14 04:44:06;;;;;;;4.55;1.20;;;6.20;91.80;;;;;;5118353;28;20554;-75
2023/01/14 04:46:31;;;;;;;3.90;1.15;;;6.20;91.70;;;;;;5098243;28;20039;-75
2023/01/14 04:48:57;;;;;;;6.13;1.30;;;6.20;91.80;;;;;;5085317;28;20047;-75
2023/01/14 04:51:22;;;;;;;2.65;1.15;;;6.20;91.80;;;;;;5098616;28;20046;-76
2023/01/14 04:53:48;;;;;;;4.40;1.20;;;6.10;91.70;;;;;;5099467;28;20039;-76
2023/01/14 04:56:13;;;;;;;5.40;1.00;;;6.20;91.80;;;;;;5100739;28;20046;-76
2023/01/14 04:58:39;;;;;;;4.30;0.85;;;6.20;91.80;;;;;;5120639;28;20039;-76
2023/01/14 05:01:05;;;;;;;3.85;1.00;;;6.20;91.80;;;;;;5097774;28;20050;-75
2023/01/14 05:03:31;;;;;;;4.07;0.80;;;6.20;91.80;;;;;;5083225;28;20142;-75
2023/01/14 05:05:57;;;;;;;3.13;1.10;;;6.20;91.80;;;;;;5119261;28;20471;-76
2023/01/14 05:08:22;;;;;;;4.03;0.95;;;6.20;91.80;;;;;;5118341;28;20122;-75
2023/01/14 05:10:49;;;;;;;5.03;0.95;;;6.20;91.80;;;;;;5118425;28;20039;-75
2023/01/14 05:13:15;;;;;;;3.70;1.02;;;6.20;91.80;;;;;;5067151;28;20036;-75
2023/01/14 05:15:43;;;;;;;3.95;0.98;;;6.30;91.80;;;;;;5117812;28;20051;-76
2023/01/14 05:18:11;;;;;;;4.53;1.05;;;6.20;91.80;;;;;;5119012;28;20074;-76
2023/01/14 05:20:37;;;;;;;3.22;0.90;;;6.30;91.80;;;;;;5120005;28;20047;-75
2023/01/14 05:23:05;;;;;;;2.47;0.90;;;6.20;91.80;;;;;;5113968;28;20031;-75
2023/01/14 05:25:32;;;;;;;2.63;0.90;;;6.30;91.80;;;;;;5084978;28;20047;-75
2023/01/14 05:27:59;;;;;;;3.20;0.85;;;6.30;91.80;;;;;;5096792;28;20126;-75
2023/01/14 05:30:25;;;;;;;2.38;0.80;;;6.30;91.80;;;;;;5096051;28;20044;-75
2023/01/14 05:32:50;;;;;;;1.50;0.60;;;6.20;91.80;;;;;;5098813;28;20052;-75
2023/01/14 05:35:17;;;;;;;2.55;0.70;;;6.30;91.90;;;;;;5099262;28;20043;-75
2023/01/14 05:37:43;;;;;;;4.28;0.95;;;6.20;91.80;;;;;;5116387;28;20431;-76
2023/01/14 05:40:10;;;;;;;1.90;0.50;;;6.30;91.90;;;;;;5114855;28;20035;-76
2023/01/14 05:47:54;;;;;;;1.52;0.50;;;6.30;91.90;;;;;;5117590;28;20048;-76
2023/01/14 05:50:19;;;;;;;5.20;0.90;;;6.30;91.90;;;;;;5103726;28;20097;-76
2023/01/14 05:52:45;;;;;;;3.58;1.25;;;6.40;91.90;;;;;;5102229;28;20042;-76
2023/01/14 05:55:10;;;;;;;3.15;0.98;;;6.40;91.80;;;;;;5102041;28;20522;-76
2023/01/14 05:57:36;;;;;;;2.88;0.80;;;6.40;92.10;;;;;;5081677;28;20046;-75
2023/01/14 06:00:02;;;;;;;4.30;1.10;;;6.40;91.80;;;;;;5120608;28;20038;-76
2023/01/14 06:06:20;;;;;;;3.15;0.80;;;6.40;91.80;;;;;;5101412;28;20449;-75
2023/01/14 06:07:51;;;;;;;2.35;0.77;;;6.40;91.80;;;;;;5090650;28;20040;-76
2023/01/14 06:10:16;;;;;;;3.75;0.63;;;6.40;91.80;;;;;;5116917;28;20039;-75
2023/01/14 06:13:06;;;;;;;4.40;0.90;;;6.40;91.80;;;;;;5121963;28;20036;-75
2023/01/14 06:15:33;;;;;;;1.88;0.80;;;6.40;91.80;;;;;;5103879;28;20027;-75
2023/01/14 06:18:21;;;;;;;3.38;0.93;;;6.50;91.80;;;;;;5118387;28;20047;-76
2023/01/14 06:20:47;;;;;;;2.55;0.70;;;6.50;91.80;;;;;;5103993;28;20054;-75
2023/01/14 06:23:13;;;;;;;4.13;0.80;;;6.50;91.80;;;;;;5098035;28;20039;-75
2023/01/14 06:25:43;;;;;;;1.98;0.70;;;6.50;91.80;;;;;;5114414;28;22531;-75
2023/01/14 06:28:09;;;;;;;2.10;0.60;;;6.50;91.80;;;;;;5119497;28;20040;-76
2023/01/14 06:30:35;;;;;;;2.75;0.90;;;6.50;91.80;;;;;;5115037;28;20405;-76
2023/01/14 06:33:00;;;;;;;1.17;0.50;;;6.50;91.80;;;;;;5099589;28;20118;-75
2023/01/14 06:35:26;;;;;;;3.03;0.60;;;6.50;91.80;;;;;;5115774;28;20422;-76
2023/01/14 06:37:52;;;;;;;3.20;0.90;;;6.60;91.80;;;;;;5103811;28;20036;-76
2023/01/14 06:40:19;;;;;;;1.60;0.50;;;6.60;91.80;;;;;;5125072;28;20067;-76
2023/01/14 06:42:45;;;;;;;3.63;0.82;;;6.60;91.80;;;;;;5082029;28;20513;-75
2023/01/14 06:45:11;;;;;;;3.70;0.93;;;6.70;91.80;;;;;;5082903;28;20101;-76
2023/01/14 06:47:37;;;;;;;5.30;1.10;;;6.60;91.70;;;;;;5104732;28;20044;-76
2023/01/14 06:50:05;;;;;;;4.15;1.30;;;6.70;91.70;;;;;;5086060;28;20044;-75
2023/01/14 06:52:30;;;;;;;2.00;0.90;;;6.70;91.70;;;;;;5084779;28;20043;-75
2023/01/14 06:54:56;;;;;;;3.58;1.15;;;6.70;91.60;;;;;;5099639;28;20028;-76
2023/01/14 06:57:22;;;;;;;5.35;1.02;;;6.80;91.60;;;;;;5104004;28;20432;-76
2023/01/14 06:59:48;;;;;;;4.68;1.10;;;6.70;91.60;;;;;;5121961;28;20060;-75
2023/01/14 07:02:14;;;;;;;2.30;0.70;;;6.70;91.60;;;;;;5116873;28;20097;-76
2023/01/14 07:04:40;;;;;;;3.33;0.80;;;6.80;91.60;;;;;;5103792;28;20040;-76
2023/01/14 07:07:06;;;;;;;2.88;0.73;;;6.80;91.60;;;;;;5119757;28;20477;-76
2023/01/14 07:09:32;;;;;;;2.33;0.80;;;6.80;91.60;;;;;;5104761;28;20039;-77
2023/01/14 07:12:03;;;;;;;3.22;0.90;;;6.80;91.60;;;;;;5121591;28;20036;-76
2023/01/14 07:14:28;;;;;;;1.85;0.73;;;6.80;91.60;;;;;;5082476;28;20047;-76
2023/01/14 07:16:54;;;;;;;2.95;0.93;;;6.80;91.60;;;;;;5125691;28;20039;-76
2023/01/14 07:19:20;;;;;;;5.15;1.30;;;6.80;91.60;;;;;;5106488;28;20105;-76
2023/01/14 07:21:45;;;;;;;2.78;1.20;;;6.80;91.60;;;;;;5104913;28;20496;-75
2023/01/14 07:24:12;;;;;;;5.40;1.38;;;6.80;91.60;;;;;;5106729;28;20056;-75
2023/01/14 07:26:37;;;;;;;4.82;1.17;;;6.80;91.60;;;;;;5102202;28;20051;-75
2023/01/14 07:29:03;;;;;;;5.00;1.20;;;6.80;91.60;;;;;;5099520;28;20035;-75
2023/01/14 07:31:29;;;;;;;7.63;1.13;;;6.70;91.60;;;;;;5119140;28;20042;-76
2023/01/14 07:33:55;;;;;;;5.97;1.20;;;6.80;91.70;;;;;;5116882;28;20504;-76
2023/01/14 07:36:21;;;;;;;3.55;1.17;;;6.70;91.70;;;;;;5081298;28;20044;-76
2023/01/14 07:38:46;;;;;;;6.85;1.15;;;6.80;91.70;;;;;;5099533;28;20485;-76
2023/01/14 07:41:18;;;;;;;5.25;1.30;;;6.70;91.70;;;;;;5121037;28;20051;-76
2023/01/14 07:43:44;;;;;;;5.13;1.40;;;6.80;91.80;;;;;;5099780;28;20536;-76
2023/01/14 07:46:10;;;;;;;3.72;1.02;;;6.70;91.70;;;;;;5097621;28;20039;-76
2023/01/14 07:48:36;;;;;;;6.00;1.20;;;6.70;91.80;;;;;;5097916;28;20066;-76
2023/01/14 07:51:03;;;;;;;3.47;0.90;;;6.70;91.80;;;;;;5116181;28;20496;-76
2023/01/14 07:53:29;;;;;;;4.20;1.00;;;6.70;91.80;;;;;;5115753;28;20039;-76
2023/01/14 07:55:55;;;;;;;3.85;1.15;;;6.70;91.90;;;;;;5115724;28;20529;-77
2023/01/14 07:58:23;;;;;;;4.05;1.20;;;6.70;91.90;;;;;;5063854;28;20157;-76
2023/01/14 08:00:48;;;;;;;2.47;1.00;;;6.70;91.90;;;;;;5080497;28;20044;-76
2023/01/14 08:03:14;;;;;;;3.67;1.15;;;6.70;91.90;;;;;;5097782;28;20054;-76
2023/01/14 08:05:40;;;;;;;2.60;0.93;;;6.70;91.90;;;;;;5115831;28;20065;-76
2023/01/14 08:08:06;;;;;;;1.95;0.82;;;6.70;92.00;;;;;;5097523;28;20074;-76
2023/01/14 08:10:31;;;;;;;4.40;1.02;;;6.70;91.90;;;;;;5116242;28;20035;-76
2023/01/14 08:12:57;;;;;;;3.47;0.80;;;6.80;92.00;;;;;;5097681;28;20562;-76
2023/01/14 08:15:23;;;;;;;3.88;1.10;;;6.80;92.00;;;;;;5096963;28;20550;-76
2023/01/14 08:17:49;;;;;;;3.67;0.90;;;6.80;92.00;;;;;;5114968;28;20214;-76
2023/01/14 08:20:17;;;;;;;2.97;1.13;;;6.80;92.00;;;;;;5097186;28;20032;-76
2023/01/14 08:22:43;;;;;;;4.43;1.10;;;6.80;92.00;;;;;;5081383;28;20118;-76
2023/01/14 08:25:09;;;;;;;2.55;0.90;;;6.80;92.00;;;;;;5097002;28;20051;-76
2023/01/14 08:27:35;;;;;;;3.38;1.20;;;6.80;92.00;;;;;;5080446;28;20485;-76
2023/01/14 08:30:01;;;;;;;4.60;1.30;;;6.80;92.00;;;;;;5081059;28;20031;-76
2023/01/14 08:32:26;;;;;;;4.60;1.20;;;6.90;92.00;;;;;;5115460;28;20036;-76
2023/01/14 08:34:52;;;;;;;2.33;1.00;;;6.90;92.00;;;;;;5097258;28;20515;-76
2023/01/14 08:37:18;;;;;;;2.78;0.80;;;6.90;92.00;;;;;;5097077;28;20382;-76
2023/01/14 08:39:44;;;;;;;3.30;0.80;;;6.90;92.00;;;;;;5114831;28;20104;-77
2023/01/14 08:42:09;;;;;;;1.08;0.75;;;7.00;92.10;;;;;;5097174;28;20439;-77
2023/01/14 08:44:35;;;;;;;2.63;0.90;;;7.00;92.00;;;;;;5097493;28;20059;-76
2023/01/14 08:47:01;;;;;;;2.42;0.95;;;7.00;92.10;;;;;;5096584;28;20042;-76
2023/01/14 08:49:28;;;;;;;1.90;0.70;;;7.00;92.10;;;;;;5098657;28;20043;-76
2023/01/14 08:51:55;;;;;;;4.43;1.10;;;7.00;92.10;;;;;;5121675;28;20031;-74
2023/01/14 08:54:21;;;;;;;2.08;0.88;;;7.00;92.10;;;;;;5100117;28;20050;-76
2023/01/14 08:56:46;;;;;;;2.53;0.93;;;7.10;92.10;;;;;;5104155;28;20416;-76
2023/01/14 08:59:12;;;;;;;1.52;1.00;;;7.10;92.10;;;;;;5101859;28;20039;-76
2023/01/14 09:01:38;;;;;;;1.63;0.80;;;7.10;92.10;;;;;;5103887;28;20044;-76
2023/01/14 09:04:04;;;;;;;2.58;0.85;;;7.20;92.10;;;;;;5102856;28;20080;-75
2023/01/14 09:06:29;;;;;;;1.33;0.75;;;7.20;92.10;;;;;;5104601;28;20040;-76
2023/01/14 09:17:05;;;;;;;2.08;0.82;;;7.30;92.10;;;;;;5124273;28;20085;-76
2023/01/14 09:19:35;;;;;;;4.30;0.90;;;7.30;92.10;;;;;;5123679;28;20598;-76
2023/01/14 09:22:00;;;;;;;2.25;1.02;;;7.40;92.10;;;;;;5125882;28;20042;-76
2023/01/14 09:24:26;;;;;;;2.70;0.90;;;7.40;92.10;;;;;;5124863;28;20032;-76
2023/01/14 09:26:51;;;;;;;3.42;1.20;;;7.40;92.10;;;;;;5124462;28;20035;-76
2023/01/14 09:29:17;;;;;;;1.55;0.70;;;7.50;92.10;;;;;;5099558;28;20111;-76
2023/01/14 09:31:43;;;;;;;2.25;1.05;;;7.50;92.10;;;;;;5134380;28;20121;-76
2023/01/14 09:34:08;;;;;;;1.00;0.60;;;7.50;92.10;;;;;;5115014;28;20051;-76
2023/01/14 09:36:34;;;;;;;1.42;0.73;;;7.50;92.10;;;;;;5129605;28;20042;-76
2023/01/14 09:39:00;;;;;;;2.13;0.88;;;7.50;92.10;;;;;;5132228;28;20035;-76
2023/01/14 09:41:31;;;;;;;2.28;1.08;;;7.60;92.10;;;;;;5094352;28;20051;-76
2023/01/14 09:43:57;;;;;;;7.10;1.08;;;7.60;92.10;;;;;;5110571;28;20050;-76
2023/01/14 09:46:26;;;;;;;1.88;0.80;;;7.60;92.10;;;;;;5126259;28;20036;-76
2023/01/14 09:48:55;;;;;;;2.28;0.90;;;7.70;92.20;;;;;;5103705;28;20485;-76
2023/01/14 09:51:57;;;;;;;1.33;0.63;;;7.70;92.10;;;;;;5105574;28;20039;-77
2023/01/14 09:54:44;;;;;;;1.55;0.90;;;7.80;92.20;;;;;;5103937;28;20438;-76
2023/01/14 09:57:20;;;;;;;1.60;0.60;;;7.80;92.20;;;;;;5099709;28;20043;-76
2023/01/14 09:59:57;;;;;;;3.55;0.70;;;7.80;92.10;;;;;;5122050;28;20035;-78
2023/01/14 10:02:29;;;;;;;1.95;0.77;;;7.80;92.10;;;;;;5062022;28;20055;-76
2023/01/14 10:05:18;;;;;;;0.93;0.50;;;7.90;92.10;;;;;;5061923;28;20076;-77
2023/01/14 10:07:44;;;;;;;1.92;0.57;;;7.90;92.10;;;;;;5082596;28;20043;-76
2023/01/14 10:10:35;;;;;;;1.13;0.60;;;7.90;92.10;;;;;;5086109;28;20039;-76
2023/01/14 10:13:05;;;;;;;2.05;0.70;;;7.90;92.10;;;;;;5099853;28;20036;-76
2023/01/14 10:16:09;;;;;;;1.40;0.53;;;8.00;92.10;;;;;;5080996;28;20093;-77
2023/01/14 10:18:46;;;;;;;0.95;0.43;;;8.00;92.20;;;;;;5100596;28;20281;-77
2023/01/14 10:21:19;;;;;;;1.92;0.73;;;8.00;92.10;;;;;;5121094;28;20038;-77
2023/01/14 10:23:45;;;;;;;2.00;0.80;;;8.10;92.20;;;;;;5101816;28;20040;-77
2023/01/14 10:26:14;;;;;;;2.15;0.85;;;8.00;92.20;;;;;;5121534;28;20108;-77
2023/01/14 10:28:42;;;;;;;2.05;0.60;;;8.00;92.20;;;;;;5101882;28;20039;-77
2023/01/14 10:31:16;;;;;;;1.45;0.65;;;8.00;92.20;;;;;;5101708;28;20043;-78
2023/01/14 10:33:42;;;;;;;1.30;0.43;;;8.00;92.20;;;;;;5100072;28;20043;-76
2023/01/14 10:36:16;;;;;;;1.05;0.55;;;8.00;92.30;;;;;;5118217;28;20143;-77
2023/01/14 10:38:42;;;;;;;0.70;0.43;;;8.00;92.30;;;;;;5116756;28;20035;-78
2023/01/14 10:41:10;;;;;;;0.60;0.50;;;8.10;92.30;;;;;;5115872;28;20066;-78
2023/01/14 10:43:42;;;;;;;1.85;0.40;;;8.10;92.30;;;;;;5080523;28;20040;-77
2023/01/14 10:46:21;;;;;;;0.82;0.40;;;8.10;92.30;;;;;;5099030;28;20119;-76
2023/01/14 10:49:11;;;;;;;1.75;0.73;;;8.20;92.30;;;;;;5097283;28;20132;-77
2023/01/14 10:51:39;;;;;;;3.08;0.80;;;8.20;92.30;;;;;;5113552;28;20052;-78
2023/01/14 10:54:14;;;;;;;0.93;0.50;;;8.20;92.40;;;;;;5080647;28;20063;-77
2023/01/14 10:56:45;;;;;;;1.38;0.60;;;8.30;92.30;;;;;;5085004;28;20048;-78
2023/01/14 10:59:26;;;;;;;1.40;0.75;;;8.30;92.30;;;;;;5081878;28;20121;-77
2023/01/14 11:01:53;;;;;;;2.47;0.70;;;8.40;92.30;;;;;;5118977;28;20043;-78
2023/01/14 11:04:26;;;;;;;1.02;0.50;;;8.40;92.20;;;;;;5118530;28;20052;-78
2023/01/14 11:06:52;;;;;;;1.48;0.73;;;8.40;92.20;;;;;;5117668;28;20039;-77
2023/01/14 11:09:23;;;;;;;1.05;0.65;;;8.50;92.20;;;;;;5106942;28;20508;-77
2023/01/14 11:11:49;;;;;;;2.08;0.70;;;8.40;92.20;;;;;;5094624;28;20079;-77
2023/01/14 11:14:32;;;;;;;2.67;0.80;;;8.60;92.30;;;;;;5090278;28;20108;-75
2023/01/14 11:16:59;;;;;;;0.77;0.60;;;8.50;92.20;;;;;;5123624;28;20086;-77
2023/01/14 11:19:25;;;;;;;1.70;0.75;;;8.60;92.20;;;;;;5082984;28;20040;-77
2023/01/14 11:21:54;;;;;;;3.20;0.90;;;8.60;92.20;;;;;;5100036;28;20065;-78
2023/01/14 11:24:35;;;;;;;1.98;0.70;;;8.60;92.30;;;;;;5117622;28;20044;-77
2023/01/14 11:27:05;;;;;;;2.45;0.88;;;8.70;92.30;;;;;;5099636;28;20401;-77
2023/01/14 11:29:35;;;;;;;1.40;0.60;;;8.80;92.30;;;;;;5117183;28;20484;-78
2023/01/14 11:32:08;;;;;;;2.10;0.68;;;8.70;92.20;;;;;;5117010;28;20109;-77
2023/01/14 11:34:42;;;;;;;1.30;0.70;;;8.80;92.30;;;;;;5101768;28;20047;-78
2023/01/14 11:37:20;;;;;;;2.65;0.90;;;8.80;92.30;;;;;;5118882;28;20051;-78
2023/01/14 11:39:49;;;;;;;1.42;0.60;;;8.80;92.30;;;;;;5083097;28;20078;-77
2023/01/14 11:42:31;;;;;;;1.20;0.57;;;8.80;92.30;;;;;;5085191;28;20489;-77
2023/01/14 11:44:58;;;;;;;1.70;0.70;;;8.80;92.30;;;;;;5080936;28;20051;-78
2023/01/14 11:47:26;;;;;;;1.60;0.80;;;8.90;92.30;;;;;;5100409;28;20046;-78
2023/01/14 11:50:15;;;;;;;1.80;0.77;;;8.90;92.40;;;;;;5098168;28;20043;-77
2023/01/14 11:52:53;;;;;;;1.35;0.57;;;8.90;92.40;;;;;;5095344;28;20043;-77
2023/01/14 11:55:18;;;;;;;1.55;0.43;;;8.90;92.30;;;;;;5117887;28;20082;-77
2023/01/14 11:57:44;;;;;;;0.77;0.50;;;8.90;92.40;;;;;;5084365;28;20481;-77
2023/01/14 12:00:12;;;;;;;1.95;0.60;;;9.00;92.40;;;;;;5084047;28;20046;-78
2023/01/14 12:02:43;;;;;;;2.30;0.75;;;9.10;92.40;;;;;;5083744;28;20058;-78
2023/01/14 12:05:16;;;;;;;1.13;0.70;;;9.10;92.40;;;;;;5065971;28;20040;-78
2023/01/14 12:07:52;;;;;;;2.75;0.60;;;9.20;92.40;;;;;;5100955;28;20112;-78
2023/01/14 12:10:30;;;;;;;0.80;0.52;;;9.20;92.40;;;;;;5099639;28;20911;-78
2023/01/14 12:18:52;;;;;;;1.70;0.55;;;9.30;92.40;;;;;;5084349;28;20043;-76
2023/01/14 12:21:26;;;;;;;1.27;0.63;;;9.30;92.40;;;;;;5114464;28;20047;-76
2023/01/14 12:24:00;;;;;;;1.80;0.60;;;9.30;92.40;;;;;;5064024;28;20050;-77
2023/01/14 12:26:34;;;;;;;0.50;0.30;;;9.30;92.40;;;;;;5097664;28;20474;-77
2023/01/14 12:29:03;;;;;;;0.55;0.35;;;9.40;92.40;;;;;;5098489;28;20042;-76
2023/01/14 12:31:39;;;;;;;0.77;0.60;;;9.30;92.50;;;;;;5096504;28;20067;-77
2023/01/14 12:34:39;;;;;;;1.95;0.45;;;9.30;92.50;;;;;;5080562;28;20032;-77
2023/01/14 12:37:16;;;;;;;0.85;0.40;;;9.40;92.50;;;;;;5115158;28;20043;-77
2023/01/14 12:45:46;;;;;;;1.73;0.70;;;9.40;92.50;;;;;;5114442;28;20123;-76
2023/01/14 12:48:18;;;;;;;0.68;0.60;;;9.50;92.50;;;;;;5081962;28;20035;-77
2023/01/14 12:50:57;;;;;;;0.63;0.40;;;9.40;92.50;;;;;;5096424;28;20116;-77
2023/01/14 12:53:28;;;;;;;0.45;0.45;;;9.50;92.60;;;;;;5115118;28;20496;-77
2023/01/14 12:55:57;;;;;;;;;;;9.50;92.60;;;;;;5096848;28;20048;-77
2023/01/14 12:58:25;;;;;;;0.25;0.20;;;9.50;92.60;;;;;;5079216;28;20318;-77
2023/01/14 13:00:54;;;;;;;1.15;0.50;;;9.50;92.60;;;;;;5115006;28;20043;-77
2023/01/14 13:03:26;;;;;;;0.93;0.60;;;9.50;92.60;;;;;;5094594;28;20047;-77
2023/01/14 13:05:53;;;;;;;0.90;0.70;;;9.50;92.60;;;;;;5097493;28;20035;-77
2023/01/14 13:08:25;;;;;;;0.63;0.40;;;9.50;92.70;;;;;;5094375;28;20040;-77
2023/01/14 13:11:04;;;;;;;0.50;0.50;;;9.60;92.70;;;;;;5114403;28;20075;-77
2023/01/14 13:13:34;;;;;;;0.60;0.47;;;9.50;92.70;;;;;;5096281;28;20039;-77
2023/01/14 13:16:02;;;;;;;0.75;0.38;;;9.60;92.70;;;;;;5114787;28;20512;-77
2023/01/14 13:18:40;;;;;;;0.50;0.50;;;9.50;93.00;;;;;;5079623;28;20044;-76
2023/01/14 13:21:08;;;;;;;0.80;0.70;;;9.60;92.70;;;;;;5077279;28;20036;-76
2023/01/14 13:23:58;;;;;;;0.93;0.60;;;9.50;92.70;;;;;;5113208;28;20046;-77
2023/01/14 13:26:53;;;;;;;0.75;0.40;;;9.50;92.70;;;;;;5094488;28;20040;-76
2023/01/14 13:29:22;;;;;;;1.30;0.50;;;9.50;92.80;;;;;;5100840;28;20097;-76
2023/01/14 13:31:48;;;;;;;1.10;0.60;;;9.50;92.80;;;;;;5095697;28;20038;-77
2023/01/14 13:34:34;;;;;;;1.25;0.40;;;9.50;92.80;;;;;;5113999;28;20031;-76
2023/01/14 13:37:18;;;;;;;0.63;0.50;;;9.50;92.80;;;;;;5081965;28;20039;-77
2023/01/14 13:39:49;;;;;;;1.48;0.50;;;9.50;92.80;;;;;;5095262;28;20068;-77
2023/01/14 13:42:23;;;;;;;1.50;0.60;;;9.60;92.80;;;;;;5115354;28;20048;-77
2023/01/14 13:44:51;;;;;;;0.75;0.52;;;9.60;92.90;;;;;;5096044;28;20486;-77
2023/01/14 13:47:30;;;;;;;0.60;0.50;;;9.60;92.80;;;;;;5062714;28;20032;-77
2023/01/14 13:50:08;;;;;;;0.55;0.40;;;9.60;92.80;;;;;;5080867;28;20032;-77
2023/01/14 13:52:47;;;;;;;1.17;0.50;;;9.60;92.80;;;;;;5113802;28;20119;-76